sensor_id;sensor_type;location;lat;lon;timestamp;temperature;humidity
5520;DHT22;2782;52.362;10.012;2023-08-24T00:00:38;21.30;91.00
5520;DHT22;2782;52.362;10.012;2023-08-24T00:01:39;21.30;91.10
5520;DHT22;2782;52.362;10.012;2023-08-24T00:02:41;21.20;91.10
5520;DHT22;2782;52.362;10.012;2023-08-24T00:03:43;21.20;91.10
5520;DHT22;2782;52.362;10.012;2023-08-24T00:04:44;21.30;91.10
5520;DHT22;2782;52.362;10.012;2023-08-24T00:05:47;21.20;91.00
5520;DHT22;2782;52.362;10.012;2023-08-24T00:06:49;21.20;91.10
5520;DHT22;2782;52.362;10.012;2023-08-24T00:07:50;21.30;91.10
5520;DHT22;2782;52.362;10.012;2023-08-24T00:08:53;21.20;91.10
5520;DHT22;2782;52.362;10.012;2023-08-24T00:09:54;21.20;91.10
5520;DHT22;2782;52.362;10.012;2023-08-24T00:10:55;21.20;91.10
5520;DHT22;2782;52.362;10.012;2023-08-24T00:11:56;21.20;91.10
5520;DHT22;2782;52.362;10.012;2023-08-24T00:12:58;21.20;91.10
5520;DHT22;2782;52.362;10.012;2023-08-24T00:13:58;21.20;91.20
5520;DHT22;2782;52.362;10.012;2023-08-24T00:15:00;21.20;91.20
5520;DHT22;2782;52.362;10.012;2023-08-24T00:16:02;21.10;91.20
5520;DHT22;2782;52.362;10.012;2023-08-24T00:17:04;21.20;91.10
5520;DHT22;2782;52.362;10.012;2023-08-24T00:18:05;21.10;91.10
5520;DHT22;2782;52.362;10.012;2023-08-24T00:19:07;21.10;91.10
5520;DHT22;2782;52.362;10.012;2023-08-24T00:20:08;21.10;91.10
5520;DHT22;2782;52.362;10.012;2023-08-24T00:21:11;21.10;91.10
5520;DHT22;2782;52.362;10.012;2023-08-24T00:22:12;21.10;91.10
5520;DHT22;2782;52.362;10.012;2023-08-24T00:23:14;21.10;91.40
5520;DHT22;2782;52.362;10.012;2023-08-24T00:24:14;21.10;91.10
5520;DHT22;2782;52.362;10.012;2023-08-24T00:25:16;21.10;91.10
5520;DHT22;2782;52.362;10.012;2023-08-24T00:26:18;21.10;91.10
5520;DHT22;2782;52.362;10.012;2023-08-24T00:27:19;21.10;91.20
5520;DHT22;2782;52.362;10.012;2023-08-24T00:28:21;21.10;91.20
5520;DHT22;2782;52.362;10.012;2023-08-24T00:29:22;21.10;91.20
5520;DHT22;2782;52.362;10.012;2023-08-24T00:30:24;21.10;91.20
5520;DHT22;2782;52.362;10.012;2023-08-24T00:31:26;21.10;91.20
5520;DHT22;2782;52.362;10.012;2023-08-24T00:32:27;21.10;91.20
5520;DHT22;2782;52.362;10.012;2023-08-24T00:33:28;21.10;91.30
5520;DHT22;2782;52.362;10.012;2023-08-24T00:34:30;21.10;91.20
5520;DHT22;2782;52.362;10.012;2023-08-24T00:35:31;21.10;91.20
5520;DHT22;2782;52.362;10.012;2023-08-24T00:36:32;21.10;91.20
5520;DHT22;2782;52.362;10.012;2023-08-24T00:37:34;21.00;91.10
5520;DHT22;2782;52.362;10.012;2023-08-24T00:38:36;21.00;91.10
5520;DHT22;2782;52.362;10.012;2023-08-24T00:39:37;21.00;91.20
5520;DHT22;2782;52.362;10.012;2023-08-24T00:40:41;21.00;91.20
5520;DHT22;2782;52.362;10.012;2023-08-24T00:41:42;21.00;91.30
5520;DHT22;2782;52.362;10.012;2023-08-24T00:42:44;21.00;91.20
5520;DHT22;2782;52.362;10.012;2023-08-24T00:43:46;21.00;91.20
5520;DHT22;2782;52.362;10.012;2023-08-24T00:44:48;21.00;91.20
5520;DHT22;2782;52.362;10.012;2023-08-24T00:45:49;21.00;91.20
5520;DHT22;2782;52.362;10.012;2023-08-24T00:46:52;21.00;91.10
5520;DHT22;2782;52.362;10.012;2023-08-24T00:47:54;21.00;91.20
5520;DHT22;2782;52.362;10.012;2023-08-24T00:48:56;21.00;91.10
5520;DHT22;2782;52.362;10.012;2023-08-24T00:49:57;21.00;91.10
5520;DHT22;2782;52.362;10.012;2023-08-24T00:51:00;21.00;91.10
5520;DHT22;2782;52.362;10.012;2023-08-24T00:52:01;21.00;91.00
5520;DHT22;2782;52.362;10.012;2023-08-24T00:53:03;21.00;91.00
5520;DHT22;2782;52.362;10.012;2023-08-24T00:54:05;21.00;91.00
5520;DHT22;2782;52.362;10.012;2023-08-24T00:55:07;21.00;91.00
5520;DHT22;2782;52.362;10.012;2023-08-24T00:56:08;21.00;91.00
5520;DHT22;2782;52.362;10.012;2023-08-24T00:57:10;21.00;91.00
5520;DHT22;2782;52.362;10.012;2023-08-24T00:58:11;20.90;90.90
5520;DHT22;2782;52.362;10.012;2023-08-24T00:59:14;21.00;90.90
5520;DHT22;2782;52.362;10.012;2023-08-24T01:00:16;21.00;90.90
5520;DHT22;2782;52.362;10.012;2023-08-24T01:01:18;20.90;90.80
5520;DHT22;2782;52.362;10.012;2023-08-24T01:02:20;20.90;90.80
5520;DHT22;2782;52.362;10.012;2023-08-24T01:03:22;21.00;90.80
5520;DHT22;2782;52.362;10.012;2023-08-24T01:04:23;20.90;90.70
5520;DHT22;2782;52.362;10.012;2023-08-24T01:05:25;20.90;90.70
5520;DHT22;2782;52.362;10.012;2023-08-24T01:06:25;21.00;90.80
5520;DHT22;2782;52.362;10.012;2023-08-24T01:07:27;20.90;90.70
5520;DHT22;2782;52.362;10.012;2023-08-24T01:08:28;20.90;90.80
5520;DHT22;2782;52.362;10.012;2023-08-24T01:09:29;20.90;90.80
5520;DHT22;2782;52.362;10.012;2023-08-24T01:10:37;20.90;90.80
5520;DHT22;2782;52.362;10.012;2023-08-24T01:11:45;20.90;90.80
5520;DHT22;2782;52.362;10.012;2023-08-24T01:12:59;20.90;90.90
5520;DHT22;2782;52.362;10.012;2023-08-24T01:14:08;20.90;90.80
5520;DHT22;2782;52.362;10.012;2023-08-24T01:15:14;20.90;90.80
5520;DHT22;2782;52.362;10.012;2023-08-24T01:16:19;20.80;90.80
5520;DHT22;2782;52.362;10.012;2023-08-24T01:17:24;20.90;90.80
5520;DHT22;2782;52.362;10.012;2023-08-24T01:18:28;20.80;90.70
5520;DHT22;2782;52.362;10.012;2023-08-24T01:19:37;20.80;90.70
5520;DHT22;2782;52.362;10.012;2023-08-24T01:20:39;20.80;90.70
5520;DHT22;2782;52.362;10.012;2023-08-24T01:21:41;20.80;90.70
5520;DHT22;2782;52.362;10.012;2023-08-24T01:22:47;20.80;90.70
5520;DHT22;2782;52.362;10.012;2023-08-24T01:23:59;20.80;90.60
5520;DHT22;2782;52.362;10.012;2023-08-24T01:25:06;20.80;90.50
5520;DHT22;2782;52.362;10.012;2023-08-24T01:26:11;20.80;90.60
5520;DHT22;2782;52.362;10.012;2023-08-24T01:27:15;20.80;90.60
5520;DHT22;2782;52.362;10.012;2023-08-24T01:28:16;20.80;90.70
5520;DHT22;2782;52.362;10.012;2023-08-24T01:29:19;20.80;90.70
5520;DHT22;2782;52.362;10.012;2023-08-24T01:30:20;20.80;90.70
5520;DHT22;2782;52.362;10.012;2023-08-24T01:31:21;20.70;90.70
5520;DHT22;2782;52.362;10.012;2023-08-24T01:32:22;20.70;90.70
5520;DHT22;2782;52.362;10.012;2023-08-24T01:33:24;20.70;90.70
5520;DHT22;2782;52.362;10.012;2023-08-24T01:34:25;20.70;90.70
5520;DHT22;2782;52.362;10.012;2023-08-24T01:35:27;20.80;90.70
5520;DHT22;2782;52.362;10.012;2023-08-24T01:36:27;20.70;90.80
5520;DHT22;2782;52.362;10.012;2023-08-24T01:37:30;20.70;90.70
5520;DHT22;2782;52.362;10.012;2023-08-24T01:38:31;20.70;90.80
5520;DHT22;2782;52.362;10.012;2023-08-24T01:39:41;20.70;90.80
5520;DHT22;2782;52.362;10.012;2023-08-24T01:40:52;20.70;90.70
5520;DHT22;2782;52.362;10.012;2023-08-24T01:42:00;20.70;90.70
5520;DHT22;2782;52.362;10.012;2023-08-24T01:43:04;20.70;90.80
5520;DHT22;2782;52.362;10.012;2023-08-24T01:44:08;20.70;90.80
5520;DHT22;2782;52.362;10.012;2023-08-24T01:45:11;20.70;90.70
5520;DHT22;2782;52.362;10.012;2023-08-24T01:46:15;20.70;90.70
5520;DHT22;2782;52.362;10.012;2023-08-24T01:47:17;20.70;90.70
5520;DHT22;2782;52.362;10.012;2023-08-24T01:48:20;20.70;90.70
5520;DHT22;2782;52.362;10.012;2023-08-24T01:49:22;20.70;90.70
5520;DHT22;2782;52.362;10.012;2023-08-24T01:50:25;20.70;90.60
5520;DHT22;2782;52.362;10.012;2023-08-24T01:51:26;20.70;90.60
5520;DHT22;2782;52.362;10.012;2023-08-24T01:52:29;20.70;90.60
5520;DHT22;2782;52.362;10.012;2023-08-24T01:53:31;20.70;90.60
5520;DHT22;2782;52.362;10.012;2023-08-24T01:54:33;20.70;90.60
5520;DHT22;2782;52.362;10.012;2023-08-24T01:55:34;20.70;90.60
5520;DHT22;2782;52.362;10.012;2023-08-24T01:56:36;20.70;90.70
5520;DHT22;2782;52.362;10.012;2023-08-24T01:57:38;20.70;90.60
5520;DHT22;2782;52.362;10.012;2023-08-24T01:58:40;20.70;90.60
5520;DHT22;2782;52.362;10.012;2023-08-24T01:59:40;20.60;90.50
5520;DHT22;2782;52.362;10.012;2023-08-24T02:00:42;20.70;90.50
5520;DHT22;2782;52.362;10.012;2023-08-24T02:01:43;20.70;90.50
5520;DHT22;2782;52.362;10.012;2023-08-24T02:02:44;20.70;90.50
5520;DHT22;2782;52.362;10.012;2023-08-24T02:03:45;20.70;90.50
5520;DHT22;2782;52.362;10.012;2023-08-24T02:04:47;20.60;90.70
5520;DHT22;2782;52.362;10.012;2023-08-24T02:05:47;20.60;90.50
5520;DHT22;2782;52.362;10.012;2023-08-24T02:06:49;20.60;90.50
5520;DHT22;2782;52.362;10.012;2023-08-24T02:07:50;20.60;90.30
5520;DHT22;2782;52.362;10.012;2023-08-24T02:08:51;20.70;90.60
5520;DHT22;2782;52.362;10.012;2023-08-24T02:09:52;20.60;90.30
5520;DHT22;2782;52.362;10.012;2023-08-24T02:10:54;20.60;90.30
5520;DHT22;2782;52.362;10.012;2023-08-24T02:11:54;20.60;90.20
5520;DHT22;2782;52.362;10.012;2023-08-24T02:12:56;20.60;90.10
5520;DHT22;2782;52.362;10.012;2023-08-24T02:13:58;20.60;90.10
5520;DHT22;2782;52.362;10.012;2023-08-24T02:14:59;20.60;90.10
5520;DHT22;2782;52.362;10.012;2023-08-24T02:16:02;20.60;90.10
5520;DHT22;2782;52.362;10.012;2023-08-24T02:17:03;20.60;90.10
5520;DHT22;2782;52.362;10.012;2023-08-24T02:18:05;20.60;90.50
5520;DHT22;2782;52.362;10.012;2023-08-24T02:19:05;20.60;90.20
5520;DHT22;2782;52.362;10.012;2023-08-24T02:20:07;20.60;90.10
5520;DHT22;2782;52.362;10.012;2023-08-24T02:21:10;20.60;90.10
5520;DHT22;2782;52.362;10.012;2023-08-24T02:22:12;20.60;90.20
5520;DHT22;2782;52.362;10.012;2023-08-24T02:23:13;20.60;90.20
5520;DHT22;2782;52.362;10.012;2023-08-24T02:24:14;20.60;90.20
5520;DHT22;2782;52.362;10.012;2023-08-24T02:25:16;20.60;90.10
5520;DHT22;2782;52.362;10.012;2023-08-24T02:26:16;20.60;90.00
5520;DHT22;2782;52.362;10.012;2023-08-24T02:27:18;20.60;90.00
5520;DHT22;2782;52.362;10.012;2023-08-24T02:28:20;20.60;90.00
5520;DHT22;2782;52.362;10.012;2023-08-24T02:29:22;20.50;90.00
5520;DHT22;2782;52.362;10.012;2023-08-24T02:30:22;20.60;90.00
5520;DHT22;2782;52.362;10.012;2023-08-24T02:31:24;20.50;89.90
5520;DHT22;2782;52.362;10.012;2023-08-24T02:32:25;20.50;90.00
5520;DHT22;2782;52.362;10.012;2023-08-24T02:33:26;20.50;90.20
5520;DHT22;2782;52.362;10.012;2023-08-24T02:34:27;20.50;90.20
5520;DHT22;2782;52.362;10.012;2023-08-24T02:35:28;20.50;90.10
5520;DHT22;2782;52.362;10.012;2023-08-24T02:36:29;20.50;90.20
5520;DHT22;2782;52.362;10.012;2023-08-24T02:37:33;20.50;90.20
5520;DHT22;2782;52.362;10.012;2023-08-24T02:38:35;20.50;90.20
5520;DHT22;2782;52.362;10.012;2023-08-24T02:39:35;20.50;90.20
5520;DHT22;2782;52.362;10.012;2023-08-24T02:40:37;20.40;90.10
5520;DHT22;2782;52.362;10.012;2023-08-24T02:41:38;20.50;90.10
5520;DHT22;2782;52.362;10.012;2023-08-24T02:42:39;20.40;90.00
5520;DHT22;2782;52.362;10.012;2023-08-24T02:43:41;20.50;90.10
5520;DHT22;2782;52.362;10.012;2023-08-24T02:44:43;20.40;90.00
5520;DHT22;2782;52.362;10.012;2023-08-24T02:45:43;20.40;90.00
5520;DHT22;2782;52.362;10.012;2023-08-24T02:46:44;20.40;90.00
5520;DHT22;2782;52.362;10.012;2023-08-24T02:47:46;20.40;89.90
5520;DHT22;2782;52.362;10.012;2023-08-24T02:48:47;20.40;90.00
5520;DHT22;2782;52.362;10.012;2023-08-24T02:49:48;20.40;89.90
5520;DHT22;2782;52.362;10.012;2023-08-24T02:50:49;20.40;89.80
5520;DHT22;2782;52.362;10.012;2023-08-24T02:51:50;20.40;89.70
5520;DHT22;2782;52.362;10.012;2023-08-24T02:52:51;20.40;89.60
5520;DHT22;2782;52.362;10.012;2023-08-24T02:53:52;20.40;89.40
5520;DHT22;2782;52.362;10.012;2023-08-24T02:54:53;20.40;89.40
5520;DHT22;2782;52.362;10.012;2023-08-24T02:55:55;20.40;89.30
5520;DHT22;2782;52.362;10.012;2023-08-24T02:56:56;20.40;89.30
5520;DHT22;2782;52.362;10.012;2023-08-24T02:57:57;20.30;89.30
5520;DHT22;2782;52.362;10.012;2023-08-24T02:58:59;20.40;89.40
5520;DHT22;2782;52.362;10.012;2023-08-24T03:00:00;20.40;89.40
5520;DHT22;2782;52.362;10.012;2023-08-24T03:01:04;20.40;89.60
5520;DHT22;2782;52.362;10.012;2023-08-24T03:02:06;20.40;89.70
5520;DHT22;2782;52.362;10.012;2023-08-24T03:03:08;20.30;89.60
5520;DHT22;2782;52.362;10.012;2023-08-24T03:04:09;20.30;89.70
5520;DHT22;2782;52.362;10.012;2023-08-24T03:05:11;20.30;89.90
5520;DHT22;2782;52.362;10.012;2023-08-24T03:06:11;20.30;90.00
5520;DHT22;2782;52.362;10.012;2023-08-24T03:07:13;20.30;90.00
5520;DHT22;2782;52.362;10.012;2023-08-24T03:08:14;20.40;90.00
5520;DHT22;2782;52.362;10.012;2023-08-24T03:09:15;20.40;90.00
5520;DHT22;2782;52.362;10.012;2023-08-24T03:10:16;20.40;90.00
5520;DHT22;2782;52.362;10.012;2023-08-24T03:11:18;20.40;90.00
5520;DHT22;2782;52.362;10.012;2023-08-24T03:12:19;20.40;90.00
5520;DHT22;2782;52.362;10.012;2023-08-24T03:13:20;20.30;90.00
5520;DHT22;2782;52.362;10.012;2023-08-24T03:14:22;20.30;90.10
5520;DHT22;2782;52.362;10.012;2023-08-24T03:15:24;20.30;90.10
5520;DHT22;2782;52.362;10.012;2023-08-24T03:16:26;20.40;90.20
5520;DHT22;2782;52.362;10.012;2023-08-24T03:17:27;20.40;90.20
5520;DHT22;2782;52.362;10.012;2023-08-24T03:18:28;20.30;90.20
5520;DHT22;2782;52.362;10.012;2023-08-24T03:19:30;20.40;90.20
5520;DHT22;2782;52.362;10.012;2023-08-24T03:20:30;20.30;90.10
5520;DHT22;2782;52.362;10.012;2023-08-24T03:21:33;20.40;90.20
5520;DHT22;2782;52.362;10.012;2023-08-24T03:22:34;20.30;90.20
5520;DHT22;2782;52.362;10.012;2023-08-24T03:23:36;20.30;90.20
5520;DHT22;2782;52.362;10.012;2023-08-24T03:24:37;20.40;90.20
5520;DHT22;2782;52.362;10.012;2023-08-24T03:25:40;20.40;90.50
5520;DHT22;2782;52.362;10.012;2023-08-24T03:26:41;20.30;90.10
5520;DHT22;2782;52.362;10.012;2023-08-24T03:27:43;20.30;90.20
5520;DHT22;2782;52.362;10.012;2023-08-24T03:28:44;20.30;90.20
5520;DHT22;2782;52.362;10.012;2023-08-24T03:29:47;20.30;90.30
5520;DHT22;2782;52.362;10.012;2023-08-24T03:30:50;20.30;90.20
5520;DHT22;2782;52.362;10.012;2023-08-24T03:31:51;20.30;90.20
5520;DHT22;2782;52.362;10.012;2023-08-24T03:32:53;20.30;90.20
5520;DHT22;2782;52.362;10.012;2023-08-24T03:33:54;20.30;90.20
5520;DHT22;2782;52.362;10.012;2023-08-24T03:34:58;20.30;90.10
5520;DHT22;2782;52.362;10.012;2023-08-24T03:35:59;20.30;90.00
5520;DHT22;2782;52.362;10.012;2023-08-24T03:37:01;20.30;90.00
5520;DHT22;2782;52.362;10.012;2023-08-24T03:38:02;20.30;90.00
5520;DHT22;2782;52.362;10.012;2023-08-24T03:39:04;20.30;90.00
5520;DHT22;2782;52.362;10.012;2023-08-24T03:40:06;20.30;90.10
5520;DHT22;2782;52.362;10.012;2023-08-24T03:41:08;20.30;90.30
5520;DHT22;2782;52.362;10.012;2023-08-24T03:42:09;20.30;90.40
5520;DHT22;2782;52.362;10.012;2023-08-24T03:43:11;20.30;90.40
5520;DHT22;2782;52.362;10.012;2023-08-24T03:44:11;20.30;90.40
5520;DHT22;2782;52.362;10.012;2023-08-24T03:45:15;20.20;90.40
5520;DHT22;2782;52.362;10.012;2023-08-24T03:46:15;20.20;90.40
5520;DHT22;2782;52.362;10.012;2023-08-24T03:47:17;20.20;90.30
5520;DHT22;2782;52.362;10.012;2023-08-24T03:48:18;20.20;90.30
5520;DHT22;2782;52.362;10.012;2023-08-24T03:49:19;20.20;90.30
5520;DHT22;2782;52.362;10.012;2023-08-24T03:50:20;20.20;90.30
5520;DHT22;2782;52.362;10.012;2023-08-24T03:51:22;20.20;90.30
5520;DHT22;2782;52.362;10.012;2023-08-24T03:52:23;20.20;90.30
5520;DHT22;2782;52.362;10.012;2023-08-24T03:53:25;20.20;90.30
5520;DHT22;2782;52.362;10.012;2023-08-24T03:54:25;20.20;90.20
5520;DHT22;2782;52.362;10.012;2023-08-24T03:55:28;20.20;90.20
5520;DHT22;2782;52.362;10.012;2023-08-24T03:56:29;20.20;90.10
5520;DHT22;2782;52.362;10.012;2023-08-24T03:57:30;20.20;90.10
5520;DHT22;2782;52.362;10.012;2023-08-24T03:58:31;20.20;90.20
5520;DHT22;2782;52.362;10.012;2023-08-24T03:59:33;20.20;90.10
5520;DHT22;2782;52.362;10.012;2023-08-24T04:00:35;20.20;90.10
5520;DHT22;2782;52.362;10.012;2023-08-24T04:01:39;20.20;90.10
5520;DHT22;2782;52.362;10.012;2023-08-24T04:02:40;20.10;90.00
5520;DHT22;2782;52.362;10.012;2023-08-24T04:03:42;20.10;89.90
5520;DHT22;2782;52.362;10.012;2023-08-24T04:04:43;20.10;89.80
5520;DHT22;2782;52.362;10.012;2023-08-24T04:05:44;20.10;89.60
5520;DHT22;2782;52.362;10.012;2023-08-24T04:06:46;20.10;89.30
5520;DHT22;2782;52.362;10.012;2023-08-24T04:07:49;20.10;89.10
5520;DHT22;2782;52.362;10.012;2023-08-24T04:08:50;20.10;88.90
5520;DHT22;2782;52.362;10.012;2023-08-24T04:09:52;20.10;88.90
5520;DHT22;2782;52.362;10.012;2023-08-24T04:10:53;20.10;88.80
5520;DHT22;2782;52.362;10.012;2023-08-24T04:11:55;20.00;88.70
5520;DHT22;2782;52.362;10.012;2023-08-24T04:12:55;20.00;88.70
5520;DHT22;2782;52.362;10.012;2023-08-24T04:13:57;20.00;89.10
5520;DHT22;2782;52.362;10.012;2023-08-24T04:14:58;20.00;89.40
5520;DHT22;2782;52.362;10.012;2023-08-24T04:16:01;20.00;89.50
5520;DHT22;2782;52.362;10.012;2023-08-24T04:17:04;20.00;89.60
5520;DHT22;2782;52.362;10.012;2023-08-24T04:18:06;20.00;89.50
5520;DHT22;2782;52.362;10.012;2023-08-24T04:19:06;20.00;89.40
5520;DHT22;2782;52.362;10.012;2023-08-24T04:20:09;20.00;88.30
5520;DHT22;2782;52.362;10.012;2023-08-24T04:21:10;20.00;86.10
5520;DHT22;2782;52.362;10.012;2023-08-24T04:22:12;19.90;85.10
5520;DHT22;2782;52.362;10.012;2023-08-24T04:23:13;19.90;85.00
5520;DHT22;2782;52.362;10.012;2023-08-24T04:24:15;19.90;85.10
5520;DHT22;2782;52.362;10.012;2023-08-24T04:25:15;19.90;85.40
5520;DHT22;2782;52.362;10.012;2023-08-24T04:26:17;19.80;85.30
5520;DHT22;2782;52.362;10.012;2023-08-24T04:27:18;19.80;85.30
5520;DHT22;2782;52.362;10.012;2023-08-24T04:28:20;19.80;85.30
5520;DHT22;2782;52.362;10.012;2023-08-24T04:29:21;19.80;85.20
5520;DHT22;2782;52.362;10.012;2023-08-24T04:30:22;19.80;86.00
5520;DHT22;2782;52.362;10.012;2023-08-24T04:31:24;19.80;88.70
5520;DHT22;2782;52.362;10.012;2023-08-24T04:32:27;19.80;89.30
5520;DHT22;2782;52.362;10.012;2023-08-24T04:33:28;19.90;89.30
5520;DHT22;2782;52.362;10.012;2023-08-24T04:34:29;19.80;89.20
5520;DHT22;2782;52.362;10.012;2023-08-24T04:35:33;19.90;89.30
5520;DHT22;2782;52.362;10.012;2023-08-24T04:36:36;19.80;89.30
5520;DHT22;2782;52.362;10.012;2023-08-24T04:37:36;19.90;89.50
5520;DHT22;2782;52.362;10.012;2023-08-24T04:38:38;19.80;89.60
5520;DHT22;2782;52.362;10.012;2023-08-24T04:39:39;19.90;89.80
5520;DHT22;2782;52.362;10.012;2023-08-24T04:40:49;19.90;90.00
5520;DHT22;2782;52.362;10.012;2023-08-24T04:41:50;19.90;90.00
5520;DHT22;2782;52.362;10.012;2023-08-24T04:42:52;20.00;89.90
5520;DHT22;2782;52.362;10.012;2023-08-24T04:43:52;20.00;89.80
5520;DHT22;2782;52.362;10.012;2023-08-24T04:44:55;20.10;89.70
5520;DHT22;2782;52.362;10.012;2023-08-24T04:45:55;20.20;89.70
5520;DHT22;2782;52.362;10.012;2023-08-24T04:46:58;20.20;89.60
5520;DHT22;2782;52.362;10.012;2023-08-24T04:48:00;20.30;89.30
5520;DHT22;2782;52.362;10.012;2023-08-24T04:49:01;20.30;89.10
5520;DHT22;2782;52.362;10.012;2023-08-24T04:50:05;20.40;89.10
5520;DHT22;2782;52.362;10.012;2023-08-24T04:51:06;20.40;89.00
5520;DHT22;2782;52.362;10.012;2023-08-24T04:52:08;20.40;88.90
5520;DHT22;2782;52.362;10.012;2023-08-24T04:53:08;20.50;89.00
5520;DHT22;2782;52.362;10.012;2023-08-24T04:54:11;20.60;89.00
5520;DHT22;2782;52.362;10.012;2023-08-24T04:55:12;20.60;88.80
5520;DHT22;2782;52.362;10.012;2023-08-24T04:56:14;20.70;89.00
5520;DHT22;2782;52.362;10.012;2023-08-24T04:57:16;20.70;88.60
5520;DHT22;2782;52.362;10.012;2023-08-24T04:58:18;20.70;89.30
5520;DHT22;2782;52.362;10.012;2023-08-24T04:59:19;20.80;89.20
5520;DHT22;2782;52.362;10.012;2023-08-24T05:00:21;20.80;89.60
5520;DHT22;2782;52.362;10.012;2023-08-24T05:01:22;20.80;90.00
5520;DHT22;2782;52.362;10.012;2023-08-24T05:02:26;20.90;90.00
5520;DHT22;2782;52.362;10.012;2023-08-24T05:03:27;20.90;89.60
5520;DHT22;2782;52.362;10.012;2023-08-24T05:04:29;20.90;89.40
5520;DHT22;2782;52.362;10.012;2023-08-24T05:05:29;21.00;89.30
5520;DHT22;2782;52.362;10.012;2023-08-24T05:06:31;21.00;89.00
5520;DHT22;2782;52.362;10.012;2023-08-24T05:07:32;21.00;88.90
5520;DHT22;2782;52.362;10.012;2023-08-24T05:08:34;21.00;89.20
5520;DHT22;2782;52.362;10.012;2023-08-24T05:09:34;21.10;89.20
5520;DHT22;2782;52.362;10.012;2023-08-24T05:10:36;21.10;89.30
5520;DHT22;2782;52.362;10.012;2023-08-24T05:11:37;21.10;89.20
5520;DHT22;2782;52.362;10.012;2023-08-24T05:12:39;21.10;89.20
5520;DHT22;2782;52.362;10.012;2023-08-24T05:13:40;21.10;89.20
5520;DHT22;2782;52.362;10.012;2023-08-24T05:14:41;21.20;89.50
5520;DHT22;2782;52.362;10.012;2023-08-24T05:15:42;21.20;89.30
5520;DHT22;2782;52.362;10.012;2023-08-24T05:16:44;21.20;89.60
5520;DHT22;2782;52.362;10.012;2023-08-24T05:17:46;21.20;90.00
5520;DHT22;2782;52.362;10.012;2023-08-24T05:18:47;21.20;89.90
5520;DHT22;2782;52.362;10.012;2023-08-24T05:19:51;21.30;90.40
5520;DHT22;2782;52.362;10.012;2023-08-24T05:20:52;21.30;90.90
5520;DHT22;2782;52.362;10.012;2023-08-24T05:21:53;21.20;90.90
5520;DHT22;2782;52.362;10.012;2023-08-24T05:22:55;21.20;91.20
5520;DHT22;2782;52.362;10.012;2023-08-24T05:23:57;21.20;91.40
5520;DHT22;2782;52.362;10.012;2023-08-24T05:24:59;21.20;91.50
5520;DHT22;2782;52.362;10.012;2023-08-24T05:26:00;21.20;91.50
5520;DHT22;2782;52.362;10.012;2023-08-24T05:27:02;21.30;90.80
5520;DHT22;2782;52.362;10.012;2023-08-24T05:28:04;21.30;91.00
5520;DHT22;2782;52.362;10.012;2023-08-24T05:29:05;21.30;91.10
5520;DHT22;2782;52.362;10.012;2023-08-24T05:30:07;21.30;91.00
5520;DHT22;2782;52.362;10.012;2023-08-24T05:31:09;21.30;91.70
5520;DHT22;2782;52.362;10.012;2023-08-24T05:32:10;21.40;92.10
5520;DHT22;2782;52.362;10.012;2023-08-24T05:33:13;21.40;92.30
5520;DHT22;2782;52.362;10.012;2023-08-24T05:34:14;21.40;92.40
5520;DHT22;2782;52.362;10.012;2023-08-24T05:35:16;21.40;92.30
5520;DHT22;2782;52.362;10.012;2023-08-24T05:36:17;21.40;92.30
5520;DHT22;2782;52.362;10.012;2023-08-24T05:37:21;21.40;92.10
5520;DHT22;2782;52.362;10.012;2023-08-24T05:38:21;21.40;92.10
5520;DHT22;2782;52.362;10.012;2023-08-24T05:39:23;21.40;92.50
5520;DHT22;2782;52.362;10.012;2023-08-24T05:40:24;21.40;92.50
5520;DHT22;2782;52.362;10.012;2023-08-24T05:41:25;21.30;92.50
5520;DHT22;2782;52.362;10.012;2023-08-24T05:42:26;21.20;92.60
5520;DHT22;2782;52.362;10.012;2023-08-24T05:43:28;21.20;92.70
5520;DHT22;2782;52.362;10.012;2023-08-24T05:44:29;21.20;92.80
5520;DHT22;2782;52.362;10.012;2023-08-24T05:45:31;21.10;92.90
5520;DHT22;2782;52.362;10.012;2023-08-24T05:46:31;21.10;92.90
5520;DHT22;2782;52.362;10.012;2023-08-24T05:47:33;21.00;93.10
5520;DHT22;2782;52.362;10.012;2023-08-24T05:48:35;21.00;93.20
5520;DHT22;2782;52.362;10.012;2023-08-24T05:49:37;20.90;93.60
5520;DHT22;2782;52.362;10.012;2023-08-24T05:50:42;20.90;93.90
5520;DHT22;2782;52.362;10.012;2023-08-24T05:51:44;20.80;94.20
5520;DHT22;2782;52.362;10.012;2023-08-24T05:52:45;20.80;94.30
5520;DHT22;2782;52.362;10.012;2023-08-24T05:53:46;20.80;94.60
5520;DHT22;2782;52.362;10.012;2023-08-24T05:54:47;20.80;94.80
5520;DHT22;2782;52.362;10.012;2023-08-24T05:55:48;20.80;95.00
5520;DHT22;2782;52.362;10.012;2023-08-24T05:56:49;20.80;95.10
5520;DHT22;2782;52.362;10.012;2023-08-24T05:57:51;20.80;95.20
5520;DHT22;2782;52.362;10.012;2023-08-24T05:58:52;20.80;95.60
5520;DHT22;2782;52.362;10.012;2023-08-24T05:59:53;20.80;95.30
5520;DHT22;2782;52.362;10.012;2023-08-24T06:00:58;20.70;95.30
5520;DHT22;2782;52.362;10.012;2023-08-24T06:01:59;20.70;95.40
5520;DHT22;2782;52.362;10.012;2023-08-24T06:03:00;20.70;95.50
5520;DHT22;2782;52.362;10.012;2023-08-24T06:04:04;20.80;95.50
5520;DHT22;2782;52.362;10.012;2023-08-24T06:05:06;20.80;95.40
5520;DHT22;2782;52.362;10.012;2023-08-24T06:06:08;20.80;95.50
5520;DHT22;2782;52.362;10.012;2023-08-24T06:07:09;20.80;95.60
5520;DHT22;2782;52.362;10.012;2023-08-24T06:08:11;20.80;95.60
5520;DHT22;2782;52.362;10.012;2023-08-24T06:09:11;20.70;95.60
5520;DHT22;2782;52.362;10.012;2023-08-24T06:10:13;20.70;95.60
5520;DHT22;2782;52.362;10.012;2023-08-24T06:11:14;20.70;95.70
5520;DHT22;2782;52.362;10.012;2023-08-24T06:12:17;20.70;95.90
5520;DHT22;2782;52.362;10.012;2023-08-24T06:13:17;20.70;96.10
5520;DHT22;2782;52.362;10.012;2023-08-24T06:14:19;20.70;96.30
5520;DHT22;2782;52.362;10.012;2023-08-24T06:15:19;20.60;96.50
5520;DHT22;2782;52.362;10.012;2023-08-24T06:16:24;20.60;96.80
5520;DHT22;2782;52.362;10.012;2023-08-24T06:17:25;20.60;96.90
5520;DHT22;2782;52.362;10.012;2023-08-24T06:18:27;20.60;97.20
5520;DHT22;2782;52.362;10.012;2023-08-24T06:19:29;20.60;97.40
5520;DHT22;2782;52.362;10.012;2023-08-24T06:20:30;20.60;97.70
5520;DHT22;2782;52.362;10.012;2023-08-24T06:21:31;20.60;97.90
5520;DHT22;2782;52.362;10.012;2023-08-24T06:22:33;20.60;98.30
5520;DHT22;2782;52.362;10.012;2023-08-24T06:23:33;20.60;98.50
5520;DHT22;2782;52.362;10.012;2023-08-24T06:24:35;20.60;98.70
5520;DHT22;2782;52.362;10.012;2023-08-24T06:25:37;20.60;98.70
5520;DHT22;2782;52.362;10.012;2023-08-24T06:26:39;20.50;98.70
5520;DHT22;2782;52.362;10.012;2023-08-24T06:27:39;20.50;98.70
5520;DHT22;2782;52.362;10.012;2023-08-24T06:28:41;20.60;98.80
5520;DHT22;2782;52.362;10.012;2023-08-24T06:29:42;20.60;98.80
5520;DHT22;2782;52.362;10.012;2023-08-24T06:30:44;20.50;98.70
5520;DHT22;2782;52.362;10.012;2023-08-24T06:31:46;20.50;98.70
5520;DHT22;2782;52.362;10.012;2023-08-24T06:32:47;20.50;98.70
5520;DHT22;2782;52.362;10.012;2023-08-24T06:33:49;20.60;98.90
5520;DHT22;2782;52.362;10.012;2023-08-24T06:34:52;20.60;98.90
5520;DHT22;2782;52.362;10.012;2023-08-24T06:35:54;20.60;98.90
5520;DHT22;2782;52.362;10.012;2023-08-24T06:37:00;20.60;98.90